createdAt,value
2023-05-19T00:00:37.139Z,12.28
2023-05-19T00:03:00.556Z,12.07
2023-05-19T00:05:23.134Z,12.20
2023-05-19T00:07:46.085Z,11.96
2023-05-19T00:10:08.237Z,11.92
2023-05-19T00:12:30.238Z,11.95
2023-05-19T00:14:51.971Z,11.92
2023-05-19T00:17:14.391Z,11.98
2023-05-19T00:19:35.828Z,11.86
2023-05-19T00:22:00.215Z,11.82
2023-05-19T00:24:21.669Z,11.80
2023-05-19T00:26:43.120Z,11.79
2023-05-19T00:29:04.660Z,11.81
2023-05-19T00:31:26.255Z,11.79
2023-05-19T00:33:47.717Z,11.71
2023-05-19T00:36:09.300Z,11.70
2023-05-19T00:38:34.791Z,11.71
2023-05-19T00:40:56.303Z,11.59
2023-05-19T00:43:17.783Z,11.57
2023-05-19T00:45:39.336Z,11.51
2023-05-19T00:48:00.866Z,11.51
2023-05-19T00:50:24.169Z,11.34
2023-05-19T00:52:45.734Z,11.24
2023-05-19T00:55:09.035Z,11.17
2023-05-19T00:57:30.559Z,11.16
2023-05-19T00:59:52.060Z,11.10
2023-05-19T01:02:13.613Z,11.04
2023-05-19T01:04:37.764Z,10.91
2023-05-19T01:06:59.208Z,10.73
2023-05-19T01:09:23.941Z,10.69
2023-05-19T01:11:45.433Z,10.69
2023-05-19T01:14:07.034Z,10.64
2023-05-19T01:16:37.473Z,10.60
2023-05-19T01:19:29.091Z,10.60
2023-05-19T01:22:14.530Z,10.58
2023-05-19T01:24:57.088Z,10.29
2023-05-19T01:27:42.906Z,10.20
2023-05-19T01:30:25.712Z,10.07
2023-05-19T01:32:48.716Z,10.12
2023-05-19T01:35:12.817Z,10.00
2023-05-19T01:37:34.655Z,10.04
2023-05-19T01:39:57.105Z,10.00
2023-05-19T01:42:20.399Z,9.97
2023-05-19T01:44:42.387Z,9.68
2023-05-19T01:47:04.641Z,9.51
2023-05-19T01:49:26.194Z,9.49
2023-05-19T01:51:49.458Z,9.54
2023-05-19T01:54:10.959Z,9.53
2023-05-19T01:56:50.038Z,9.50
2023-05-19T01:59:42.480Z,9.41
2023-05-19T02:02:30.113Z,9.40
2023-05-19T02:04:57.414Z,9.42
2023-05-19T02:07:41.491Z,9.40
2023-05-19T02:10:10.785Z,9.34
2023-05-19T02:12:37.891Z,9.30
2023-05-19T02:15:07.221Z,9.33
2023-05-19T02:17:33.250Z,9.31
2023-05-19T02:19:54.902Z,9.28
2023-05-19T02:22:16.430Z,9.20
2023-05-19T02:24:37.887Z,9.01
2023-05-19T02:26:59.620Z,8.84
2023-05-19T02:29:21.429Z,8.84
2023-05-19T02:31:43.033Z,8.88
2023-05-19T02:34:04.558Z,8.72
2023-05-19T02:36:26.595Z,8.86
2023-05-19T02:38:48.082Z,8.69
2023-05-19T02:41:09.545Z,8.59
2023-05-19T02:43:31.012Z,8.44
2023-05-19T02:45:52.597Z,8.47
2023-05-19T02:48:14.363Z,8.53
2023-05-19T02:50:36.353Z,8.48
2023-05-19T02:52:57.875Z,8.44
2023-05-19T02:55:19.646Z,8.50
2023-05-19T02:57:42.339Z,8.41
2023-05-19T03:00:06.903Z,8.33
2023-05-19T03:02:28.417Z,8.04
2023-05-19T03:04:50.066Z,8.09
2023-05-19T03:07:13.408Z,8.21
2023-05-19T03:09:34.916Z,8.06
2023-05-19T03:11:56.381Z,8.07
2023-05-19T03:14:18.752Z,7.99
2023-05-19T03:16:43.878Z,7.81
2023-05-19T03:19:05.767Z,7.87
2023-05-19T03:21:27.541Z,7.93
2023-05-19T03:23:49.015Z,8.09
2023-05-19T03:26:10.769Z,8.07
2023-05-19T03:28:32.279Z,7.98
2023-05-19T03:30:53.869Z,7.87
2023-05-19T03:33:15.425Z,7.90
2023-05-19T03:35:37.083Z,7.71
2023-05-19T03:37:58.543Z,7.67
2023-05-19T03:40:20.195Z,7.63
2023-05-19T03:42:41.641Z,7.82
2023-05-19T03:45:03.567Z,7.95
2023-05-19T03:47:25.031Z,8.09
2023-05-19T03:49:46.494Z,8.19
2023-05-19T03:52:07.962Z,8.25
2023-05-19T03:54:29.394Z,8.27
2023-05-19T03:56:50.937Z,8.18
2023-05-19T03:59:12.908Z,8.14
2023-05-19T04:01:34.584Z,8.11
2023-05-19T04:03:56.205Z,8.06
2023-05-19T04:06:19.109Z,7.93
2023-05-19T04:08:40.744Z,7.94
2023-05-19T04:11:02.250Z,8.08
2023-05-19T04:13:23.720Z,8.34
2023-05-19T04:15:45.647Z,8.41
2023-05-19T04:18:07.236Z,8.50
2023-05-19T04:20:28.792Z,8.27
2023-05-19T04:22:50.288Z,8.36
2023-05-19T04:25:11.934Z,8.36
2023-05-19T04:27:36.629Z,8.48
2023-05-19T04:29:58.227Z,8.64
2023-05-19T04:32:19.731Z,8.73
2023-05-19T04:34:45.140Z,8.88
2023-05-19T04:37:07.773Z,8.96
2023-05-19T04:39:29.224Z,8.80
2023-05-19T04:41:50.705Z,8.92
2023-05-19T04:44:13.635Z,9.06
2023-05-19T04:46:35.270Z,9.20
2023-05-19T04:48:57.302Z,9.25
2023-05-19T04:51:19.843Z,9.33
2023-05-19T04:53:42.324Z,9.29
2023-05-19T04:56:04.101Z,9.33
2023-05-19T04:58:25.982Z,9.26
2023-05-19T05:00:47.504Z,9.34
2023-05-19T05:03:09.040Z,9.45
2023-05-19T05:05:31.523Z,9.55
2023-05-19T05:07:54.182Z,9.55
2023-05-19T05:10:15.772Z,9.71
2023-05-19T05:12:37.440Z,9.75
2023-05-19T05:14:59.083Z,9.91
2023-05-19T05:17:21.556Z,9.88
2023-05-19T05:19:43.291Z,9.98
2023-05-19T05:22:06.251Z,10.14
2023-05-19T05:24:28.040Z,10.26
2023-05-19T05:26:49.849Z,10.41
2023-05-19T05:29:11.329Z,10.50
2023-05-19T05:31:32.765Z,10.57
2023-05-19T05:33:54.353Z,10.77
2023-05-19T05:36:15.933Z,10.94
2023-05-19T05:38:37.425Z,11.09
2023-05-19T05:40:58.885Z,11.21
2023-05-19T05:43:20.415Z,11.29
2023-05-19T05:45:41.902Z,11.28
2023-05-19T05:48:04.037Z,11.36
2023-05-19T05:50:26.076Z,11.59
2023-05-19T05:52:48.458Z,11.70
2023-05-19T05:55:10.802Z,11.78
2023-05-19T05:57:35.351Z,11.91
2023-05-19T05:59:57.324Z,12.00
2023-05-19T06:02:19.162Z,12.01
2023-05-19T06:04:40.902Z,12.24
2023-05-19T06:07:02.390Z,12.38
2023-05-19T06:09:23.869Z,12.45
2023-05-19T06:11:45.548Z,12.52
2023-05-19T06:14:07.033Z,12.68
2023-05-19T06:16:28.549Z,12.63
2023-05-19T06:18:50.093Z,12.66
2023-05-19T06:21:13.348Z,12.92
2023-05-19T06:23:35.092Z,13.00
2023-05-19T06:25:56.762Z,13.20
2023-05-19T06:28:18.230Z,13.29
2023-05-19T06:30:39.689Z,13.35
2023-05-19T06:33:01.566Z,13.43
2023-05-19T06:35:23.068Z,13.43
2023-05-19T06:37:44.517Z,13.65
2023-05-19T06:40:07.061Z,13.72
2023-05-19T06:42:28.532Z,13.82
2023-05-19T06:44:50.449Z,13.99
2023-05-19T06:47:12.103Z,14.12
2023-05-19T06:49:33.730Z,14.27
2023-05-19T06:51:55.338Z,14.36
2023-05-19T06:54:16.874Z,14.55
2023-05-19T06:56:38.485Z,14.58
2023-05-19T06:58:59.968Z,14.51
2023-05-19T07:01:21.551Z,14.56
2023-05-19T07:03:43.207Z,14.52
2023-05-19T07:06:07.782Z,14.66
2023-05-19T07:08:29.700Z,14.64
2023-05-19T07:10:51.153Z,14.73
2023-05-19T07:13:12.611Z,14.65
2023-05-19T07:15:34.071Z,14.81
2023-05-19T07:17:55.602Z,14.78
2023-05-19T07:20:17.102Z,14.96
2023-05-19T07:22:41.325Z,15.07
2023-05-19T07:25:02.989Z,15.30
2023-05-19T07:27:24.463Z,15.56
2023-05-19T07:29:45.937Z,15.74
2023-05-19T07:32:07.637Z,15.98
2023-05-19T07:34:29.105Z,16.07
2023-05-19T07:36:51.702Z,16.25
2023-05-19T07:39:13.985Z,16.40
2023-05-19T07:41:36.460Z,16.56
2023-05-19T07:43:58.035Z,16.71
2023-05-19T07:46:19.642Z,16.99
2023-05-19T07:48:41.204Z,17.15
2023-05-19T07:51:02.867Z,17.43
2023-05-19T07:53:24.421Z,17.59
2023-05-19T07:55:46.489Z,17.75
2023-05-19T07:58:07.949Z,17.72
2023-05-19T08:00:29.439Z,17.82
2023-05-19T08:02:51.342Z,17.92
2023-05-19T08:05:12.895Z,17.85
2023-05-19T08:07:34.609Z,17.96
2023-05-19T08:09:56.072Z,17.95
2023-05-19T08:12:17.519Z,17.84
2023-05-19T08:14:38.992Z,18.04
2023-05-19T08:17:00.674Z,18.25
2023-05-19T08:19:22.274Z,18.45
2023-05-19T08:21:44.733Z,18.59
2023-05-19T08:24:06.607Z,18.65
2023-05-19T08:26:28.692Z,18.83
2023-05-19T08:28:50.164Z,19.08
2023-05-19T08:31:11.730Z,19.51
2023-05-19T08:33:33.304Z,19.51
2023-05-19T08:35:57.956Z,19.64
2023-05-19T08:38:19.437Z,19.68
2023-05-19T08:40:42.127Z,19.70
2023-05-19T08:43:03.741Z,19.91
2023-05-19T08:45:25.411Z,20.05
2023-05-19T08:47:49.643Z,20.21
2023-05-19T08:50:12.598Z,20.18
2023-05-19T08:52:37.167Z,20.45
2023-05-19T08:55:09.735Z,20.16
2023-05-19T08:57:32.781Z,19.72
2023-05-19T08:59:55.750Z,19.53
2023-05-19T09:02:18.605Z,19.63
2023-05-19T09:04:41.538Z,19.52
2023-05-19T09:07:04.169Z,19.36
2023-05-19T09:09:25.677Z,19.30
2023-05-19T09:11:47.258Z,19.52
2023-05-19T09:14:08.732Z,19.53
2023-05-19T09:16:30.811Z,19.85
2023-05-19T09:18:56.521Z,19.72
2023-05-19T09:21:18.187Z,19.76
2023-05-19T09:23:39.696Z,19.87
2023-05-19T09:26:07.579Z,19.81
2023-05-19T09:28:32.195Z,20.00
2023-05-19T09:31:03.006Z,19.89
2023-05-19T09:33:24.471Z,19.76
2023-05-19T09:35:48.781Z,19.75
2023-05-19T09:38:17.472Z,19.79
2023-05-19T09:40:39.201Z,19.61
2023-05-19T09:43:05.509Z,19.73
2023-05-19T09:45:28.797Z,19.82
2023-05-19T09:47:51.260Z,19.86
2023-05-19T09:50:14.119Z,19.72
2023-05-19T09:52:39.587Z,19.82
2023-05-19T09:55:03.076Z,19.96
2023-05-19T09:57:28.440Z,20.18
2023-05-19T09:59:50.031Z,20.30
2023-05-19T10:02:16.757Z,20.46
2023-05-19T10:04:38.567Z,20.50
2023-05-19T10:07:05.760Z,20.49
2023-05-19T10:09:29.140Z,20.92
2023-05-19T10:11:55.359Z,21.02
2023-05-19T10:14:18.169Z,21.41
2023-05-19T10:16:40.357Z,21.67
2023-05-19T10:19:02.605Z,21.94
2023-05-19T10:21:24.166Z,21.93
2023-05-19T10:23:45.791Z,22.14
2023-05-19T10:26:08.471Z,22.38
2023-05-19T10:28:36.880Z,22.61
2023-05-19T10:31:01.763Z,22.70
2023-05-19T10:33:47.904Z,22.67
2023-05-19T10:36:28.484Z,22.36
2023-05-19T10:39:08.158Z,22.29
2023-05-19T10:41:57.377Z,22.33
2023-05-19T10:44:53.268Z,22.22
2023-05-19T10:47:14.812Z,21.99
2023-05-19T10:49:36.813Z,21.84
2023-05-19T10:51:58.436Z,21.38
2023-05-19T10:54:40.815Z,21.12
2023-05-19T10:57:02.286Z,21.10
2023-05-19T10:59:32.883Z,21.41
2023-05-19T11:01:54.364Z,21.34
2023-05-19T11:04:16.002Z,21.56
2023-05-19T11:06:38.762Z,21.95
2023-05-19T11:09:31.058Z,22.45
2023-05-19T11:12:03.533Z,22.66
2023-05-19T11:14:28.971Z,22.87
2023-05-19T11:16:52.244Z,23.03
2023-05-19T11:19:26.922Z,23.01
2023-05-19T11:21:54.872Z,23.18
2023-05-19T11:24:40.274Z,23.29
2023-05-19T11:27:33.729Z,23.48
2023-05-19T11:29:57.316Z,23.66
2023-05-19T11:32:21.611Z,23.98
2023-05-19T11:34:44.694Z,24.37
2023-05-19T11:37:06.837Z,24.90
2023-05-19T11:39:29.163Z,25.45
2023-05-19T11:41:51.622Z,25.64
2023-05-19T11:44:13.144Z,25.46
2023-05-19T11:46:34.659Z,25.78
2023-05-19T11:48:56.360Z,25.87
2023-05-19T11:51:20.805Z,26.27
2023-05-19T11:53:43.329Z,25.82
2023-05-19T11:56:05.006Z,25.74
2023-05-19T11:58:27.828Z,26.03
2023-05-19T12:00:49.556Z,26.43
2023-05-19T12:03:11.555Z,26.88
2023-05-19T12:05:39.801Z,27.29
2023-05-19T12:08:02.676Z,27.94
2023-05-19T12:10:28.868Z,28.08
2023-05-19T12:12:52.042Z,27.95
2023-05-19T12:15:14.510Z,27.82
2023-05-19T12:17:36.002Z,27.71
2023-05-19T12:19:57.955Z,27.99
2023-05-19T12:22:19.894Z,28.32
2023-05-19T12:24:43.753Z,28.38
2023-05-19T12:27:13.782Z,28.61
2023-05-19T12:29:35.279Z,28.66
2023-05-19T12:31:56.867Z,29.21
2023-05-19T12:34:18.894Z,30.04
2023-05-19T12:36:41.528Z,30.68
2023-05-19T12:39:05.788Z,29.96
2023-05-19T12:41:29.809Z,29.21
2023-05-19T12:43:51.348Z,28.46
2023-05-19T12:46:13.794Z,28.44
2023-05-19T12:48:35.262Z,28.06
2023-05-19T12:50:56.876Z,28.10
2023-05-19T12:53:18.527Z,27.63
2023-05-19T12:55:44.531Z,27.34
2023-05-19T12:58:07.344Z,27.15
2023-05-19T13:00:31.122Z,26.97
2023-05-19T13:03:02.256Z,27.78
2023-05-19T13:05:24.642Z,28.04
2023-05-19T13:08:05.039Z,28.08
2023-05-19T13:10:27.835Z,28.62
2023-05-19T13:12:49.323Z,29.16
2023-05-19T13:15:11.539Z,29.50
2023-05-19T13:17:34.718Z,30.07
2023-05-19T13:19:56.256Z,30.18
2023-05-19T13:22:17.740Z,29.26
2023-05-19T13:24:39.182Z,29.08
2023-05-19T13:27:00.809Z,28.87
2023-05-19T13:29:22.319Z,28.78
2023-05-19T13:31:43.885Z,28.26
2023-05-19T13:34:05.430Z,27.82
2023-05-19T13:36:27.889Z,27.61
2023-05-19T13:38:49.401Z,28.10
2023-05-19T13:41:11.041Z,28.01
2023-05-19T13:43:32.629Z,27.99
2023-05-19T13:45:54.116Z,27.84
2023-05-19T13:48:15.654Z,27.91
2023-05-19T13:50:37.228Z,28.03
2023-05-19T13:52:58.802Z,27.77
2023-05-19T13:55:20.540Z,27.99
2023-05-19T13:57:43.999Z,27.92
2023-05-19T14:00:07.923Z,27.93
2023-05-19T14:02:30.008Z,28.15
2023-05-19T14:04:52.004Z,27.86
2023-05-19T14:07:13.548Z,28.07
2023-05-19T14:09:35.049Z,27.66
2023-05-19T14:11:56.692Z,27.73
2023-05-19T14:14:18.197Z,28.13
2023-05-19T14:16:42.752Z,28.28
2023-05-19T14:19:04.400Z,28.36
2023-05-19T14:21:26.089Z,28.70
2023-05-19T14:23:47.826Z,29.28
2023-05-19T14:26:09.354Z,29.53
2023-05-19T14:28:30.950Z,29.14
2023-05-19T14:30:52.682Z,28.44
2023-05-19T14:33:14.261Z,28.17
2023-05-19T14:35:35.798Z,28.32
2023-05-19T14:37:57.276Z,29.39
2023-05-19T14:40:18.989Z,29.64
2023-05-19T14:42:40.490Z,29.61
2023-05-19T14:45:01.960Z,29.34
2023-05-19T14:47:24.364Z,29.52
2023-05-19T14:49:47.270Z,30.24
2023-05-19T14:52:08.750Z,30.43
2023-05-19T14:54:30.278Z,30.30
2023-05-19T14:56:51.778Z,30.63
2023-05-19T14:59:13.199Z,31.03
2023-05-19T15:01:34.746Z,31.05
2023-05-19T15:03:56.269Z,30.66
2023-05-19T15:06:17.754Z,30.99
2023-05-19T15:08:40.705Z,31.58
2023-05-19T15:11:02.174Z,31.16
2023-05-19T15:13:23.653Z,31.31
2023-05-19T15:15:45.887Z,30.66
2023-05-19T15:18:07.346Z,30.70
2023-05-19T15:20:29.614Z,30.65
2023-05-19T15:22:51.199Z,31.46
2023-05-19T15:25:12.670Z,31.43
2023-05-19T15:27:36.947Z,31.96
2023-05-19T15:29:58.651Z,32.22
2023-05-19T15:32:20.330Z,32.32
2023-05-19T15:34:41.907Z,31.26
2023-05-19T15:37:03.667Z,30.79
2023-05-19T15:39:25.281Z,30.17
2023-05-19T15:41:46.785Z,28.85
2023-05-19T15:44:08.334Z,29.37
2023-05-19T15:46:30.221Z,28.58
2023-05-19T15:48:51.964Z,28.45
2023-05-19T15:51:13.423Z,29.77
2023-05-19T15:53:34.896Z,30.58
2023-05-19T15:55:57.507Z,30.91
2023-05-19T15:58:18.973Z,31.47
2023-05-19T16:00:40.558Z,31.86
2023-05-19T16:03:02.212Z,32.70
2023-05-19T16:05:23.713Z,32.76
2023-05-19T16:07:45.269Z,33.29
2023-05-19T16:10:07.201Z,33.86
2023-05-19T16:12:29.534Z,33.80
2023-05-19T16:14:51.018Z,33.58
2023-05-19T16:17:13.854Z,33.95
2023-05-19T16:19:35.336Z,33.19
2023-05-19T16:21:56.803Z,32.34
2023-05-19T16:24:18.273Z,32.03
2023-05-19T16:26:39.813Z,31.07
2023-05-19T16:29:01.294Z,31.05
2023-05-19T16:31:22.917Z,30.93
2023-05-19T16:33:44.421Z,30.52
2023-05-19T16:36:06.523Z,30.54
2023-05-19T16:38:28.007Z,30.04
2023-05-19T16:40:49.501Z,28.44
2023-05-19T16:43:10.991Z,27.81
2023-05-19T16:45:32.529Z,27.67
2023-05-19T16:47:54.093Z,28.01
2023-05-19T16:50:15.702Z,27.57
2023-05-19T16:52:37.168Z,27.69
2023-05-19T16:54:58.646Z,28.20
2023-05-19T16:57:20.122Z,28.63
2023-05-19T16:59:42.737Z,28.83
2023-05-19T17:02:04.503Z,28.21
2023-05-19T17:04:27.543Z,28.09
2023-05-19T17:06:51.008Z,27.47
2023-05-19T17:09:12.746Z,26.33
2023-05-19T17:11:34.204Z,26.63
2023-05-19T17:13:55.710Z,26.89
2023-05-19T17:16:17.519Z,26.89
2023-05-19T17:18:39.043Z,26.30
2023-05-19T17:21:03.737Z,25.63
2023-05-19T17:23:25.405Z,25.15
2023-05-19T17:25:47.138Z,24.16
2023-05-19T17:28:08.694Z,23.72
2023-05-19T17:30:30.144Z,23.36
2023-05-19T17:32:51.843Z,22.84
2023-05-19T17:35:13.329Z,22.62
2023-05-19T17:37:34.834Z,22.51
2023-05-19T17:39:56.308Z,22.41
2023-05-19T17:42:17.812Z,22.09
2023-05-19T17:44:39.260Z,21.99
2023-05-19T17:47:05.193Z,21.91
2023-05-19T17:49:27.108Z,21.83
2023-05-19T17:51:56.414Z,21.20
2023-05-19T17:54:18.229Z,21.26
2023-05-19T17:56:44.289Z,21.17
2023-05-19T17:59:14.890Z,21.07
2023-05-19T18:01:37.102Z,20.95
2023-05-19T18:03:58.949Z,20.76
2023-05-19T18:06:20.744Z,20.58
2023-05-19T18:08:47.036Z,20.27
2023-05-19T18:11:13.352Z,20.25
2023-05-19T18:13:35.341Z,20.12
2023-05-19T18:15:59.106Z,19.95
2023-05-19T18:18:20.774Z,19.67
2023-05-19T18:20:44.783Z,19.54
2023-05-19T18:23:06.384Z,19.56
2023-05-19T18:25:27.836Z,19.45
2023-05-19T18:27:49.318Z,19.30
2023-05-19T18:30:11.122Z,19.14
2023-05-19T18:32:33.892Z,18.89
2023-05-19T18:34:55.402Z,18.77
2023-05-19T18:37:17.706Z,18.71
2023-05-19T18:39:39.311Z,18.69
2023-05-19T18:42:01.676Z,18.75
2023-05-19T18:44:23.150Z,18.56
2023-05-19T18:46:44.670Z,18.41
2023-05-19T18:49:06.217Z,18.32
2023-05-19T18:51:27.641Z,18.19
2023-05-19T18:53:50.154Z,18.45
2023-05-19T18:56:12.292Z,18.23
2023-05-19T18:58:33.771Z,18.00
2023-05-19T19:00:55.994Z,17.93
2023-05-19T19:03:17.656Z,17.79
2023-05-19T19:05:39.663Z,17.75
2023-05-19T19:08:01.238Z,17.36
2023-05-19T19:10:22.697Z,17.40
2023-05-19T19:12:44.177Z,17.67
2023-05-19T19:15:06.232Z,17.84
2023-05-19T19:17:27.708Z,17.89
2023-05-19T19:19:49.350Z,17.81
2023-05-19T19:22:10.982Z,17.68
2023-05-19T19:24:32.521Z,17.70
2023-05-19T19:26:54.008Z,17.53
2023-05-19T19:29:16.693Z,17.61
2023-05-19T19:31:38.382Z,17.57
2023-05-19T19:34:03.634Z,17.64
2023-05-19T19:36:26.235Z,17.70
2023-05-19T19:38:47.696Z,17.69
2023-05-19T19:41:09.290Z,17.60
2023-05-19T19:43:30.810Z,17.58
2023-05-19T19:46:00.676Z,17.43
2023-05-19T19:48:22.147Z,17.48
2023-05-19T19:50:43.677Z,17.42
2023-05-19T19:53:05.172Z,17.48
2023-05-19T19:55:26.938Z,17.42
2023-05-19T19:57:49.519Z,17.12
2023-05-19T20:00:11.979Z,17.12
2023-05-19T20:02:35.384Z,17.16
2023-05-19T20:04:56.858Z,17.00
2023-05-19T20:07:20.742Z,17.07
2023-05-19T20:09:42.215Z,16.76
2023-05-19T20:12:04.045Z,16.71
2023-05-19T20:14:25.511Z,16.66
2023-05-19T20:16:47.140Z,16.75
2023-05-19T20:19:09.437Z,16.82
2023-05-19T20:21:31.167Z,16.91
2023-05-19T20:23:52.712Z,16.78
2023-05-19T20:26:14.872Z,16.80
2023-05-19T20:28:36.443Z,16.72
2023-05-19T20:30:57.896Z,16.73
2023-05-19T20:33:19.379Z,16.68
2023-05-19T20:35:40.845Z,16.70
2023-05-19T20:38:02.381Z,16.59
2023-05-19T20:40:23.911Z,16.60
2023-05-19T20:42:45.442Z,16.68
2023-05-19T20:45:08.217Z,16.59
2023-05-19T20:47:30.538Z,16.54
2023-05-19T20:49:52.162Z,16.44
2023-05-19T20:52:16.038Z,16.42
2023-05-19T20:54:37.485Z,16.40
2023-05-19T20:56:58.950Z,16.35
2023-05-19T20:59:20.407Z,16.34
2023-05-19T21:01:42.267Z,16.17
2023-05-19T21:04:07.762Z,16.04
2023-05-19T21:06:29.373Z,16.08
2023-05-19T21:08:51.002Z,16.08
2023-05-19T21:11:12.533Z,16.17
2023-05-19T21:13:34.020Z,16.21
2023-05-19T21:15:56.366Z,16.29
2023-05-19T21:18:17.940Z,16.22
2023-05-19T21:20:39.917Z,16.30
2023-05-19T21:23:01.371Z,16.44
2023-05-19T21:25:23.028Z,16.57
2023-05-19T21:27:46.245Z,16.44
2023-05-19T21:30:09.406Z,16.44
2023-05-19T21:32:30.949Z,16.44
2023-05-19T21:34:52.518Z,16.57
2023-05-19T21:37:13.984Z,16.51
2023-05-19T21:39:35.527Z,16.64
2023-05-19T21:41:56.973Z,16.71
2023-05-19T21:44:18.438Z,16.71
2023-05-19T21:46:39.966Z,16.52
2023-05-19T21:49:01.523Z,16.60
2023-05-19T21:51:23.022Z,16.59
2023-05-19T21:53:45.058Z,16.56
2023-05-19T21:56:06.635Z,16.56
2023-05-19T21:58:28.122Z,16.50
2023-05-19T22:00:51.145Z,16.45
2023-05-19T22:03:12.933Z,16.34
2023-05-19T22:05:35.259Z,16.28
2023-05-19T22:07:56.910Z,16.13
2023-05-19T22:10:18.474Z,16.13
2023-05-19T22:12:40.168Z,15.91
2023-05-19T22:15:02.829Z,15.61
2023-05-19T22:17:24.328Z,15.68
2023-05-19T22:19:46.031Z,15.74
2023-05-19T22:22:13.792Z,15.86
2023-05-19T22:24:36.109Z,15.76
2023-05-19T22:26:57.594Z,15.77
2023-05-19T22:29:20.030Z,15.65
2023-05-19T22:31:41.510Z,15.71
2023-05-19T22:34:03.020Z,15.69
2023-05-19T22:36:24.504Z,15.71
2023-05-19T22:38:45.980Z,15.71
2023-05-19T22:41:07.527Z,15.56
2023-05-19T22:43:28.977Z,15.68
2023-05-19T22:45:50.521Z,15.81
2023-05-19T22:48:12.380Z,15.47
2023-05-19T22:50:33.891Z,15.47
2023-05-19T22:52:55.342Z,15.43
2023-05-19T22:55:16.895Z,15.36
2023-05-19T22:57:38.411Z,15.45
2023-05-19T22:59:59.910Z,15.51
2023-05-19T23:02:21.451Z,15.67
2023-05-19T23:04:42.930Z,15.45
2023-05-19T23:07:04.628Z,15.46
2023-05-19T23:09:27.295Z,15.32
2023-05-19T23:11:48.941Z,15.29
2023-05-19T23:14:10.877Z,15.39
2023-05-19T23:16:32.390Z,15.36
2023-05-19T23:18:53.909Z,15.48
2023-05-19T23:21:15.511Z,15.51
2023-05-19T23:23:36.994Z,15.49
2023-05-19T23:25:58.472Z,15.57
2023-05-19T23:28:19.930Z,15.56
2023-05-19T23:30:41.382Z,15.68
2023-05-19T23:33:02.944Z,15.64
2023-05-19T23:35:24.524Z,15.56
2023-05-19T23:37:46.121Z,15.51
2023-05-19T23:40:08.565Z,15.54
2023-05-19T23:42:30.037Z,15.61
2023-05-19T23:44:51.650Z,15.63
2023-05-19T23:47:13.179Z,15.62
2023-05-19T23:49:34.666Z,15.61
2023-05-19T23:51:56.344Z,15.53
2023-05-19T23:54:17.796Z,15.33
2023-05-19T23:56:39.321Z,15.42
2023-05-19T23:59:00.858Z,15.52
